createdAt,value
2023-05-02T00:01:58.275Z,11.57
2023-05-02T00:04:26.103Z,11.73
2023-05-02T00:06:54.187Z,10.05
2023-05-02T00:09:22.075Z,9.73
2023-05-02T00:11:49.734Z,11.05
2023-05-02T00:14:17.464Z,9.98
2023-05-02T00:16:45.088Z,9.57
2023-05-02T00:19:15.677Z,10.40
2023-05-02T00:21:43.625Z,10.35
2023-05-02T00:24:11.220Z,9.85
2023-05-02T00:26:38.821Z,10.40
2023-05-02T00:29:08.146Z,10.90
2023-05-02T00:31:36.378Z,10.82
2023-05-02T00:34:04.978Z,9.80
2023-05-02T00:36:33.037Z,10.02
2023-05-02T00:39:01.489Z,9.50
2023-05-02T00:43:57.988Z,9.30
2023-05-02T00:46:26.152Z,8.80
2023-05-02T00:51:21.427Z,10.10
2023-05-02T00:53:49.755Z,10.23
2023-05-02T00:56:17.284Z,9.68
2023-05-02T00:58:47.229Z,10.15
2023-05-02T01:01:33.534Z,10.30
2023-05-02T01:04:13.374Z,9.63
2023-05-02T01:07:05.342Z,9.23
2023-05-02T01:10:15.326Z,9.50
2023-05-02T01:12:49.202Z,9.30
2023-05-02T01:15:21.100Z,9.52
2023-05-02T01:17:51.109Z,8.38
2023-05-02T01:20:21.647Z,8.93
2023-05-02T01:22:49.950Z,9.68
2023-05-02T01:25:29.948Z,11.25
2023-05-02T01:28:05.414Z,10.27
2023-05-02T01:30:35.865Z,9.70
2023-05-02T01:33:05.731Z,9.05
2023-05-02T01:35:35.806Z,9.90
2023-05-02T01:38:04.848Z,10.23
2023-05-02T01:40:35.131Z,9.70
2023-05-02T01:43:05.303Z,10.57
2023-05-02T01:45:35.270Z,10.38
2023-05-02T01:48:05.547Z,9.77
2023-05-02T01:50:34.483Z,10.38
2023-05-02T01:53:04.885Z,11.20
2023-05-02T01:55:36.242Z,11.05
2023-05-02T01:58:05.988Z,11.77
2023-05-02T02:00:34.548Z,13.50
2023-05-02T02:03:04.896Z,13.73
2023-05-02T02:05:34.657Z,13.48
2023-05-02T02:08:03.830Z,13.40
2023-05-02T02:10:40.373Z,13.43
2023-05-02T02:13:19.674Z,12.95
2023-05-02T02:15:50.409Z,12.43
2023-05-02T02:18:25.252Z,12.55
2023-05-02T02:20:54.012Z,12.50
2023-05-02T02:23:25.920Z,13.23
2023-05-02T02:25:55.717Z,14.10
2023-05-02T02:28:23.670Z,13.95
2023-05-02T02:30:51.339Z,14.63
2023-05-02T02:33:20.187Z,15.63
2023-05-02T02:36:01.449Z,16.08
2023-05-02T02:38:48.222Z,16.20
2023-05-02T02:41:28.157Z,17.00
2023-05-02T02:44:18.801Z,17.52
2023-05-02T02:46:46.948Z,16.27
2023-05-02T02:49:33.330Z,17.02
2023-05-02T02:52:06.913Z,16.45
2023-05-02T02:55:15.983Z,16.67
2023-05-02T02:57:58.080Z,16.20
2023-05-02T03:00:28.504Z,15.57
2023-05-02T03:02:57.717Z,17.10
2023-05-02T03:05:26.068Z,15.73
2023-05-02T03:07:53.718Z,13.88
2023-05-02T03:10:24.170Z,15.18
2023-05-02T03:12:55.594Z,14.40
2023-05-02T03:15:41.077Z,15.07
2023-05-02T03:18:10.580Z,14.55
2023-05-02T03:20:38.272Z,14.68
2023-05-02T03:23:06.014Z,15.23
2023-05-02T03:25:33.985Z,18.08
2023-05-02T03:28:01.596Z,14.63
2023-05-02T03:32:58.273Z,14.35
2023-05-02T03:35:25.957Z,15.48
2023-05-02T03:37:54.662Z,14.80
2023-05-02T03:40:22.579Z,15.07
2023-05-02T03:42:50.294Z,14.30
2023-05-02T03:45:27.048Z,13.98
2023-05-02T03:47:54.874Z,14.20
2023-05-02T03:50:23.932Z,13.13
2023-05-02T03:52:53.552Z,14.43
2023-05-02T03:55:29.596Z,13.80
2023-05-02T03:57:58.174Z,13.63
2023-05-02T04:00:26.142Z,13.68
2023-05-02T04:03:03.586Z,12.90
2023-05-02T04:05:33.445Z,14.30
2023-05-02T04:08:02.506Z,13.15
2023-05-02T04:10:31.792Z,13.80
2023-05-02T04:13:03.520Z,14.25
2023-05-02T04:15:32.294Z,13.43
2023-05-02T04:18:00.481Z,14.15
2023-05-02T04:20:28.849Z,14.30
2023-05-02T04:22:56.700Z,14.75
2023-05-02T04:25:24.388Z,12.82
2023-05-02T04:27:54.613Z,13.82
2023-05-02T04:30:24.338Z,12.98
2023-05-02T04:32:59.693Z,12.60
2023-05-02T04:35:32.487Z,12.80
2023-05-02T04:38:00.266Z,13.82
2023-05-02T04:40:28.907Z,12.40
2023-05-02T04:43:03.002Z,12.82
2023-05-02T04:45:37.731Z,12.90
2023-05-02T04:48:08.975Z,13.60
2023-05-02T04:50:36.604Z,12.07
2023-05-02T04:53:04.576Z,11.93
2023-05-02T04:55:33.998Z,13.23
2023-05-02T04:58:02.201Z,13.75
2023-05-02T05:00:30.972Z,12.30
2023-05-02T05:03:00.172Z,14.30
2023-05-02T05:05:29.625Z,12.90
2023-05-02T05:07:57.459Z,12.80
2023-05-02T05:10:27.993Z,12.68
2023-05-02T05:15:25.577Z,14.45
2023-05-02T05:17:57.761Z,13.55
2023-05-02T05:20:25.681Z,12.25
2023-05-02T05:22:56.385Z,12.43
2023-05-02T05:25:27.616Z,12.48
2023-05-02T05:27:56.333Z,12.25
2023-05-02T05:30:25.841Z,13.82
2023-05-02T05:32:54.296Z,12.55
2023-05-02T05:40:18.946Z,12.68
2023-05-02T05:42:51.582Z,12.23
2023-05-02T05:45:25.488Z,11.88
2023-05-02T05:47:55.963Z,12.18
2023-05-02T05:50:26.112Z,11.20
2023-05-02T05:52:53.785Z,11.75
2023-05-02T05:55:21.961Z,11.43
2023-05-02T05:57:49.944Z,10.18
2023-05-02T06:00:17.847Z,11.25
2023-05-02T06:05:10.829Z,9.85
2023-05-02T06:07:38.688Z,9.60
2023-05-02T06:10:06.634Z,10.27
2023-05-02T06:12:36.226Z,9.95
2023-05-02T06:15:04.362Z,10.23
2023-05-02T06:20:00.496Z,8.30
2023-05-02T06:22:28.716Z,9.10
2023-05-02T06:24:56.331Z,8.55
2023-05-02T06:27:24.188Z,7.70
2023-05-02T06:32:20.431Z,9.40
2023-05-02T06:34:48.047Z,9.30
2023-05-02T06:37:15.732Z,8.32
2023-05-02T06:39:43.391Z,8.90
2023-05-02T06:42:11.558Z,6.82
2023-05-02T06:44:39.297Z,7.68
2023-05-02T06:47:07.819Z,8.93
2023-05-02T06:49:35.981Z,9.70
2023-05-02T06:52:03.822Z,8.30
2023-05-02T06:54:31.412Z,9.32
2023-05-02T06:57:00.413Z,7.80
2023-05-02T06:59:28.251Z,9.63
2023-05-02T07:01:56.330Z,8.98
2023-05-02T07:04:23.858Z,9.00
2023-05-02T07:06:51.651Z,7.85
2023-05-02T07:09:19.704Z,8.98
2023-05-02T07:11:47.239Z,8.43
2023-05-02T07:14:14.785Z,8.70
2023-05-02T07:16:43.239Z,8.07
2023-05-02T07:19:10.897Z,10.05
2023-05-02T07:21:38.631Z,8.30
2023-05-02T07:24:06.284Z,9.52
2023-05-02T07:26:33.987Z,9.43
2023-05-02T07:29:01.769Z,9.82
2023-05-02T07:31:29.824Z,9.73
2023-05-02T07:36:24.851Z,10.18
2023-05-02T07:38:52.789Z,10.50
2023-05-02T07:41:20.477Z,10.50
2023-05-02T07:43:48.126Z,11.18
2023-05-02T07:46:16.355Z,9.07
2023-05-02T07:48:44.402Z,9.68
2023-05-02T07:51:12.611Z,10.60
2023-05-02T07:56:08.844Z,9.80
2023-05-02T07:58:37.463Z,11.80
2023-05-02T08:01:05.434Z,11.40
2023-05-02T08:06:02.336Z,10.13
2023-05-02T08:08:30.313Z,10.00
2023-05-02T08:10:58.277Z,8.40
2023-05-02T08:13:27.453Z,8.48
2023-05-02T08:15:58.601Z,8.25
2023-05-02T08:18:26.750Z,7.93
2023-05-02T08:20:57.854Z,5.95
2023-05-02T08:23:25.601Z,5.38
2023-05-02T08:25:53.763Z,5.63
2023-05-02T08:30:49.553Z,5.57
2023-05-02T08:33:17.349Z,6.15
2023-05-02T08:35:45.354Z,6.82
2023-05-02T08:38:13.088Z,6.20
2023-05-02T08:40:42.338Z,6.47
2023-05-02T08:43:12.120Z,7.38
2023-05-02T08:45:42.310Z,6.95
2023-05-02T08:48:12.299Z,6.60
2023-05-02T08:50:43.592Z,6.05
2023-05-02T08:53:13.670Z,6.55
2023-05-02T08:55:43.034Z,6.63
2023-05-02T08:58:13.938Z,6.25
2023-05-02T09:00:45.922Z,7.18
2023-05-02T09:03:23.732Z,6.95
2023-05-02T09:05:55.554Z,6.78
2023-05-02T09:08:24.668Z,7.03
2023-05-02T09:10:52.324Z,6.35
2023-05-02T09:13:33.040Z,5.45
2023-05-02T09:16:03.217Z,6.78
2023-05-02T09:18:34.939Z,7.43
2023-05-02T09:21:10.566Z,6.25
2023-05-02T09:23:40.834Z,7.32
2023-05-02T09:26:33.292Z,7.93
2023-05-02T09:29:03.536Z,8.00
2023-05-02T09:34:14.697Z,8.90
2023-05-02T09:36:49.070Z,8.60
2023-05-02T09:39:23.773Z,7.43
2023-05-02T09:41:54.099Z,7.15
2023-05-02T09:44:29.564Z,7.25
2023-05-02T09:47:02.302Z,7.68
2023-05-02T09:49:47.008Z,8.43
2023-05-02T09:52:16.279Z,7.30
2023-05-02T09:54:46.599Z,6.45
2023-05-02T09:57:14.604Z,7.25
2023-05-02T09:59:52.888Z,7.18
2023-05-02T10:02:22.151Z,6.78
2023-05-02T10:04:51.414Z,7.00
2023-05-02T10:07:19.459Z,7.18
2023-05-02T10:12:21.957Z,6.78
2023-05-02T10:14:55.977Z,6.15
2023-05-02T10:17:30.201Z,6.70
2023-05-02T10:20:03.908Z,6.15
2023-05-02T10:22:34.231Z,6.05
2023-05-02T10:25:03.918Z,7.45
2023-05-02T10:27:33.914Z,6.63
2023-05-02T10:30:05.467Z,6.20
2023-05-02T10:32:34.968Z,6.45
2023-05-02T10:35:05.585Z,5.93
2023-05-02T10:37:36.276Z,6.28
2023-05-02T10:40:06.614Z,5.40
2023-05-02T10:42:40.762Z,4.95
2023-05-02T10:45:32.894Z,5.85
2023-05-02T10:48:25.093Z,5.80
2023-05-02T10:51:01.904Z,5.85
2023-05-02T10:53:37.432Z,5.45
2023-05-02T10:56:21.285Z,6.07
2023-05-02T10:58:51.366Z,5.22
2023-05-02T11:01:26.558Z,6.85
2023-05-02T11:06:59.804Z,6.00
2023-05-02T11:09:27.411Z,5.37
2023-05-02T11:11:58.160Z,5.40
2023-05-02T11:14:30.982Z,5.80
2023-05-02T11:16:59.140Z,5.80
2023-05-02T11:19:31.574Z,5.53
2023-05-02T11:22:18.182Z,5.90
2023-05-02T11:24:48.139Z,5.27
2023-05-02T11:27:38.517Z,5.85
2023-05-02T11:30:09.156Z,5.45
2023-05-02T11:32:46.755Z,5.93
2023-05-02T11:35:19.512Z,5.90
2023-05-02T11:38:05.009Z,5.35
2023-05-02T11:40:33.305Z,5.60
2023-05-02T11:43:01.472Z,5.60
2023-05-02T11:45:37.459Z,5.55
2023-05-02T11:48:09.240Z,5.72
2023-05-02T11:50:49.802Z,5.38
2023-05-02T11:53:23.478Z,5.88
2023-05-02T11:55:57.582Z,4.40
2023-05-02T11:58:32.432Z,4.72
2023-05-02T12:01:15.557Z,5.00
2023-05-02T12:03:43.968Z,4.82
2023-05-02T12:06:14.654Z,4.97
2023-05-02T12:08:44.815Z,5.15
2023-05-02T12:11:16.347Z,4.78
2023-05-02T12:13:46.863Z,4.22
2023-05-02T12:16:15.396Z,4.13
2023-05-02T12:18:43.342Z,4.03
2023-05-02T12:21:11.657Z,3.92
2023-05-02T12:23:42.548Z,4.18
2023-05-02T12:26:31.822Z,5.20
2023-05-02T12:28:59.555Z,8.45
2023-05-02T12:31:31.618Z,4.65
2023-05-02T12:34:00.604Z,7.60
2023-05-02T12:36:29.590Z,4.35
2023-05-02T12:38:59.717Z,4.50
2023-05-02T12:41:35.187Z,4.15
2023-05-02T12:44:03.970Z,4.05
2023-05-02T12:46:32.745Z,3.80
2023-05-02T12:49:09.546Z,4.05
2023-05-02T12:51:38.633Z,2.97
2023-05-02T12:54:07.150Z,3.80
2023-05-02T12:56:43.660Z,4.07
2023-05-02T12:59:30.506Z,3.70
2023-05-02T13:01:59.558Z,4.50
2023-05-02T13:04:41.644Z,4.18
2023-05-02T13:07:09.909Z,4.15
2023-05-02T13:09:39.184Z,4.30
2023-05-02T13:12:07.100Z,4.68
2023-05-02T13:14:34.787Z,4.05
2023-05-02T13:19:31.549Z,3.70
2023-05-02T13:21:59.728Z,3.95
2023-05-02T13:24:27.457Z,4.93
2023-05-02T13:26:55.046Z,3.90
2023-05-02T13:29:22.680Z,4.18
2023-05-02T13:31:50.516Z,3.80
2023-05-02T13:34:19.476Z,3.80
2023-05-02T13:36:48.320Z,4.10
2023-05-02T13:39:16.004Z,4.20
2023-05-02T13:49:07.105Z,4.07
2023-05-02T13:51:34.813Z,4.05
2023-05-02T13:54:03.027Z,4.38
2023-05-02T13:56:30.838Z,4.55
2023-05-02T13:58:59.663Z,4.63
2023-05-02T14:01:28.380Z,4.25
2023-05-02T14:03:59.388Z,4.28
2023-05-02T14:06:27.578Z,4.50
2023-05-02T14:08:55.428Z,4.40
2023-05-02T14:13:50.592Z,3.95
2023-05-02T14:18:47.193Z,4.38
2023-05-02T14:21:15.420Z,4.32
2023-05-02T14:23:43.286Z,5.00
2023-05-02T14:28:40.244Z,4.35
2023-05-02T14:31:08.198Z,4.43
2023-05-02T14:33:37.786Z,4.43
2023-05-02T14:36:06.922Z,4.10
2023-05-02T14:38:36.065Z,4.60
2023-05-02T14:41:06.171Z,4.00
2023-05-02T14:43:33.890Z,4.07
2023-05-02T14:46:02.733Z,4.18
2023-05-02T14:48:31.207Z,4.28
2023-05-02T14:51:03.693Z,4.45
2023-05-02T14:53:31.920Z,4.35
2023-05-02T14:55:59.475Z,4.45
2023-05-02T14:58:27.071Z,5.05
2023-05-02T15:00:54.821Z,4.78
2023-05-02T15:03:22.602Z,4.93
2023-05-02T15:10:45.621Z,4.60
2023-05-02T15:13:14.433Z,5.15
2023-05-02T15:15:42.025Z,5.35
2023-05-02T15:20:39.183Z,4.85
2023-05-02T15:23:06.828Z,4.55
2023-05-02T15:25:35.596Z,4.47
2023-05-02T15:28:04.711Z,4.68
2023-05-02T15:30:32.387Z,4.68
2023-05-02T15:35:27.418Z,4.32
2023-05-02T15:37:55.830Z,4.93
2023-05-02T15:40:26.023Z,4.78
2023-05-02T15:42:53.635Z,5.30
2023-05-02T15:45:22.634Z,5.53
2023-05-02T15:50:21.731Z,5.38
2023-05-02T15:52:49.413Z,5.70
2023-05-02T15:55:17.262Z,5.82
2023-05-02T15:57:45.220Z,5.65
2023-05-02T16:00:16.983Z,5.53
2023-05-02T16:02:44.727Z,5.50
2023-05-02T16:05:13.777Z,4.97
2023-05-02T16:07:41.710Z,6.10
2023-05-02T16:10:09.971Z,5.53
2023-05-02T16:12:37.673Z,5.50
2023-05-02T16:17:33.919Z,5.30
2023-05-02T16:20:01.790Z,6.00
2023-05-02T16:22:30.844Z,5.95
2023-05-02T16:24:58.593Z,5.97
2023-05-02T16:27:27.127Z,6.35
2023-05-02T16:30:32.659Z,5.85
2023-05-02T16:33:00.674Z,5.60
2023-05-02T16:35:29.774Z,6.03
2023-05-02T16:37:57.506Z,5.82
2023-05-02T16:40:27.429Z,6.20
2023-05-02T16:42:56.291Z,5.55
2023-05-02T16:45:24.076Z,5.72
2023-05-02T16:50:20.394Z,5.90
2023-05-02T16:52:48.798Z,5.80
2023-05-02T16:55:17.993Z,6.10
2023-05-02T16:57:45.691Z,5.90
2023-05-02T17:02:44.283Z,5.72
2023-05-02T17:05:12.862Z,6.07
2023-05-02T17:07:42.144Z,6.03
2023-05-02T17:10:10.517Z,6.15
2023-05-02T17:12:38.286Z,5.78
2023-05-02T17:15:07.518Z,6.28
2023-05-02T17:17:36.682Z,6.88
2023-05-02T17:20:07.302Z,6.97
2023-05-02T17:22:38.251Z,6.18
2023-05-02T17:25:06.577Z,6.72
2023-05-02T17:27:34.324Z,6.22
2023-05-02T17:30:02.316Z,6.18
2023-05-02T17:32:36.305Z,5.75
2023-05-02T17:35:05.194Z,6.90
2023-05-02T17:37:33.521Z,6.55
2023-05-02T17:40:02.317Z,6.55
2023-05-02T17:42:30.109Z,5.95
2023-05-02T17:44:58.979Z,6.40
2023-05-02T17:47:26.708Z,6.25
2023-05-02T17:49:54.639Z,6.40
2023-05-02T17:52:24.544Z,6.50
2023-05-02T17:54:54.216Z,6.50
2023-05-02T17:57:22.090Z,6.93
2023-05-02T18:02:22.439Z,6.80
2023-05-02T18:04:50.090Z,6.40
2023-05-02T18:07:23.740Z,6.05
2023-05-02T18:09:52.659Z,6.38
2023-05-02T18:12:20.967Z,6.20
2023-05-02T18:14:49.318Z,6.53
2023-05-02T18:17:20.429Z,5.82
2023-05-02T18:19:50.651Z,6.32
2023-05-02T18:22:21.329Z,6.45
2023-05-02T18:24:49.992Z,6.18
2023-05-02T18:27:17.874Z,5.40
2023-05-02T18:29:46.983Z,5.05
2023-05-02T18:32:17.168Z,6.18
2023-05-02T18:34:45.077Z,6.25
2023-05-02T18:37:12.917Z,6.03
2023-05-02T18:39:40.683Z,5.40
2023-05-02T18:42:08.768Z,5.18
2023-05-02T18:47:04.541Z,5.90
2023-05-02T18:49:33.474Z,5.65
2023-05-02T18:52:03.641Z,5.85
2023-05-02T18:54:33.511Z,5.88
2023-05-02T18:57:02.393Z,5.50
2023-05-02T18:59:30.309Z,5.35
2023-05-02T19:02:01.004Z,5.70
2023-05-02T19:04:31.907Z,5.80
2023-05-02T19:07:00.877Z,5.15
2023-05-02T19:09:31.152Z,5.25
2023-05-02T19:12:03.616Z,5.60
2023-05-02T19:14:33.502Z,6.10
2023-05-02T19:17:05.727Z,6.53
2023-05-02T19:19:34.340Z,5.43
2023-05-02T19:22:03.013Z,5.53
2023-05-02T19:24:30.762Z,4.70
2023-05-02T19:26:59.225Z,5.45
2023-05-02T19:29:27.454Z,5.97
2023-05-02T19:31:57.009Z,5.07
2023-05-02T19:34:24.773Z,5.90
2023-05-02T19:36:55.488Z,5.78
2023-05-02T19:39:26.496Z,5.75
2023-05-02T19:42:01.208Z,5.78
2023-05-02T19:44:30.646Z,5.30
2023-05-02T19:50:16.415Z,5.97
2023-05-02T19:53:21.810Z,5.97
2023-05-02T19:55:50.980Z,7.33
2023-05-02T19:58:20.440Z,6.93
2023-05-02T20:03:35.953Z,7.95
2023-05-02T20:06:04.147Z,7.18
2023-05-02T20:08:32.152Z,7.85
2023-05-02T20:11:00.054Z,6.95
2023-05-02T20:13:28.914Z,6.75
2023-05-02T20:15:57.452Z,7.22
2023-05-02T20:18:25.618Z,6.72
2023-05-02T20:20:53.469Z,6.10
2023-05-02T20:23:21.153Z,6.93
2023-05-02T20:25:48.809Z,7.85
2023-05-02T20:28:16.483Z,7.32
2023-05-02T20:30:44.227Z,7.50
2023-05-02T20:33:16.034Z,8.32
2023-05-02T20:35:45.322Z,8.23
2023-05-02T20:38:12.895Z,8.88
2023-05-02T20:40:42.825Z,8.18
2023-05-02T20:43:12.069Z,7.60
2023-05-02T20:45:40.233Z,8.57
2023-05-02T20:48:08.406Z,8.20
2023-05-02T20:50:36.377Z,8.02
2023-05-02T20:53:05.176Z,7.28
2023-05-02T20:55:35.890Z,7.82
2023-05-02T20:58:12.759Z,7.88
2023-05-02T21:00:41.703Z,8.23
2023-05-02T21:03:09.389Z,8.50
2023-05-02T21:05:37.134Z,8.77
2023-05-02T21:08:04.808Z,9.10
2023-05-02T21:10:32.533Z,10.10
2023-05-02T21:13:00.372Z,9.02
2023-05-02T21:15:28.286Z,8.77
2023-05-02T21:18:05.474Z,9.57
2023-05-02T21:20:33.855Z,7.95
2023-05-02T21:23:01.526Z,9.60
2023-05-02T21:25:29.429Z,9.43
2023-05-02T21:27:58.670Z,8.88
2023-05-02T21:30:26.318Z,8.13
2023-05-02T21:32:54.129Z,8.60
2023-05-02T21:37:49.779Z,9.55
2023-05-02T21:40:20.606Z,9.90
2023-05-02T21:42:48.528Z,9.52
2023-05-02T21:45:16.407Z,9.20
2023-05-02T21:47:44.094Z,9.35
2023-05-02T21:50:11.742Z,10.25
2023-05-02T21:52:39.818Z,9.15
2023-05-02T21:55:07.890Z,8.70
2023-05-02T21:57:36.716Z,8.80
2023-05-02T22:00:06.082Z,9.10
2023-05-02T22:02:33.999Z,9.23
2023-05-02T22:07:30.075Z,9.15
2023-05-02T22:09:58.457Z,8.75
2023-05-02T22:12:27.423Z,10.65
2023-05-02T22:14:57.629Z,9.70
2023-05-02T22:17:26.602Z,9.82
2023-05-02T22:22:22.428Z,10.00
2023-05-02T22:24:50.021Z,9.50
2023-05-02T22:27:17.641Z,9.82
2023-05-02T22:29:48.379Z,9.60
2023-05-02T22:32:16.237Z,9.68
2023-05-02T22:34:43.904Z,9.35
2023-05-02T22:37:12.646Z,9.18
2023-05-02T22:39:40.841Z,8.98
2023-05-02T22:44:50.464Z,9.88
2023-05-02T22:47:22.114Z,10.20
2023-05-02T22:49:51.091Z,9.43
2023-05-02T22:52:20.721Z,10.02
2023-05-02T22:54:48.965Z,9.30
2023-05-02T22:57:16.605Z,9.93
2023-05-02T22:59:44.205Z,10.02
2023-05-02T23:02:12.483Z,10.73
2023-05-02T23:04:40.123Z,10.23
2023-05-02T23:07:07.809Z,10.25
2023-05-02T23:09:36.029Z,9.93
2023-05-02T23:14:33.744Z,10.93
2023-05-02T23:17:03.550Z,10.48
2023-05-02T23:19:31.723Z,11.30
2023-05-02T23:21:59.842Z,10.75
2023-05-02T23:29:26.176Z,10.90
2023-05-02T23:31:54.667Z,9.63
2023-05-02T23:34:22.712Z,10.10
2023-05-02T23:36:52.291Z,10.30
2023-05-02T23:39:20.133Z,9.23
2023-05-02T23:41:47.866Z,11.43
2023-05-02T23:44:15.452Z,10.63
2023-05-02T23:46:43.164Z,11.05
2023-05-02T23:49:11.071Z,12.15
2023-05-02T23:51:39.170Z,10.48
2023-05-02T23:54:07.692Z,9.93
2023-05-02T23:56:35.572Z,10.68
2023-05-02T23:59:03.973Z,10.07
